Time;durP1;ratioP1;P1;durP2;ratioP2;P2;SDS_P1;SDS_P2;PMS_P1;PMS_P2;Temp;Humidity;BMP_temperature;BMP_pressure;BME280_temperature;BME280_humidity;BME280_pressure;Samples;Min_cycle;Max_cycle;Signal;HPM_P1;HPM_P2
2022/05/25 00:00:39;;;;;;;1.50;0.70;;;;;;;;;;6237206;23;20386;-53
2022/05/25 00:03:07;;;;;;;1.50;0.77;;;;;;;;;;6230275;22;20394;-54
2022/05/25 00:05:35;;;;;;;1.40;0.83;;;;;;;;;;6234301;23;20703;-54
2022/05/25 00:08:09;;;;;;;1.83;1.03;;;;;;;;;;6210473;23;20957;-55
2022/05/25 00:10:35;;;;;;;1.50;1.10;;;;;;;;;;6235245;22;20434;-52
2022/05/25 00:13:01;;;;;;;1.23;0.83;;;;;;;;;;6229911;23;20390;-52
2022/05/25 00:15:28;;;;;;;1.10;0.80;;;;;;;;;;6224805;23;20713;-53
2022/05/25 00:17:55;;;;;;;2.87;0.90;;;;;;;;;;6231283;23;20455;-54
2022/05/25 00:20:21;;;;;;;1.70;1.10;;;;;;;;;;6225184;23;20380;-52
2022/05/25 00:22:47;;;;;;;1.67;0.80;;;;;;;;;;6238306;23;20378;-53
2022/05/25 00:25:17;;;;;;;1.10;0.70;;;;;;;;;;6223073;23;20370;-52
2022/05/25 00:27:43;;;;;;;2.13;1.00;;;;;;;;;;6237046;23;20386;-52
2022/05/25 00:30:10;;;;;;;2.10;0.80;;;;;;;;;;6230710;23;20426;-53
2022/05/25 00:32:36;;;;;;;1.70;0.90;;;;;;;;;;6241520;23;20366;-53
2022/05/25 00:38:07;;;;;;;1.60;1.00;;;;;;;;;;6232251;23;20979;-52
2022/05/25 00:40:41;;;;;;;2.40;1.10;;;;;;;;;;6222134;23;20760;-51
2022/05/25 00:43:07;;;;;;;1.40;0.67;;;;;;;;;;6238235;23;20390;-51
2022/05/25 00:45:37;;;;;;;1.87;0.87;;;;;;;;;;6222728;23;20428;-53
2022/05/25 00:48:03;;;;;;;1.07;0.80;;;;;;;;;;6232224;23;20409;-52
2022/05/25 00:51:11;;;;;;;3.20;1.43;;;;;;;;;;6223979;23;20505;-54
2022/05/25 00:53:16;;;;;;;1.97;1.00;;;;;;;;;;6238342;23;20767;-54
2022/05/25 00:55:47;;;;;;;1.43;0.80;;;;;;;;;;6226631;23;20802;-52
2022/05/25 00:58:17;;;;;;;1.73;0.80;;;;;;;;;;6236390;22;20374;-55
2022/05/25 01:00:43;;;;;;;1.67;1.00;;;;;;;;;;6233236;23;20386;-52
2022/05/25 01:03:11;;;;;;;1.50;0.90;;;;;;;;;;6235365;23;20485;-52
2022/05/25 01:06:01;;;;;;;1.10;0.80;;;;;;;;;;6229969;23;20151;-53
2022/05/25 01:08:26;;;;;;;2.70;1.03;;;;;;;;;;6232298;23;20390;-52
2022/05/25 01:11:08;;;;;;;1.40;0.90;;;;;;;;;;6234119;23;20809;-53
2022/05/25 01:13:34;;;;;;;1.23;0.80;;;;;;;;;;6234459;23;20245;-51
2022/05/25 01:16:03;;;;;;;3.73;0.93;;;;;;;;;;6221896;23;20378;-51
2022/05/25 01:18:43;;;;;;;1.20;0.73;;;;;;;;;;6236506;23;20373;-52
2022/05/25 01:21:27;;;;;;;1.10;0.80;;;;;;;;;;6223493;23;20421;-52
2022/05/25 01:23:54;;;;;;;1.30;1.07;;;;;;;;;;6231488;23;20960;-52
2022/05/25 01:26:21;;;;;;;2.30;0.70;;;;;;;;;;6232651;22;20426;-53
2022/05/25 01:28:48;;;;;;;3.57;0.77;;;;;;;;;;6237625;23;20377;-53
2022/05/25 01:31:16;;;;;;;1.10;0.70;;;;;;;;;;6228385;23;20537;-54
2022/05/25 01:33:43;;;;;;;1.97;0.80;;;;;;;;;;6234466;23;20939;-50
2022/05/25 01:36:34;;;;;;;1.43;0.87;;;;;;;;;;6232987;23;20369;-56
2022/05/25 01:39:24;;;;;;;1.83;0.80;;;;;;;;;;6234871;22;20386;-53
2022/05/25 01:41:54;;;;;;;1.73;0.83;;;;;;;;;;6234193;22;20390;-53
2022/05/25 01:44:21;;;;;;;1.70;0.70;;;;;;;;;;6238269;23;20366;-53
2022/05/25 01:46:49;;;;;;;1.10;0.70;;;;;;;;;;6223626;22;20366;-52
2022/05/25 01:49:18;;;;;;;1.00;0.63;;;;;;;;;;6232651;23;20362;-53
2022/05/25 01:51:45;;;;;;;2.03;0.90;;;;;;;;;;6228443;23;20388;-53
2022/05/25 01:54:16;;;;;;;1.87;0.90;;;;;;;;;;6232301;23;20374;-52
2022/05/25 01:56:48;;;;;;;1.60;0.80;;;;;;;;;;6225432;23;20724;-53
2022/05/25 01:59:15;;;;;;;1.13;0.80;;;;;;;;;;6231492;23;20378;-52
2022/05/25 02:01:47;;;;;;;1.50;0.80;;;;;;;;;;6228102;23;20714;-53
2022/05/25 02:04:22;;;;;;;2.00;1.00;;;;;;;;;;6236136;23;20453;-50
2022/05/25 02:07:00;;;;;;;1.07;0.63;;;;;;;;;;6221837;22;20377;-52
2022/05/25 02:09:29;;;;;;;1.10;0.70;;;;;;;;;;6237671;23;20424;-52
2022/05/25 02:12:00;;;;;;;3.10;1.07;;;;;;;;;;6225752;23;20862;-53
2022/05/25 02:14:29;;;;;;;1.67;1.00;;;;;;;;;;6236946;23;20378;-52
2022/05/25 02:17:17;;;;;;;1.13;0.77;;;;;;;;;;6223457;23;20370;-52
2022/05/25 02:19:46;;;;;;;1.57;1.00;;;;;;;;;;6235277;23;20385;-54
2022/05/25 02:22:20;;;;;;;1.20;0.93;;;;;;;;;;6227561;23;20378;-52
2022/05/25 02:24:46;;;;;;;1.30;0.70;;;;;;;;;;6238132;23;20374;-51
2022/05/25 02:27:33;;;;;;;6.97;1.37;;;;;;;;;;6223283;23;20497;-52
2022/05/25 02:30:04;;;;;;;3.70;2.20;;;;;;;;;;6235350;23;20425;-54
2022/05/25 02:32:38;;;;;;;2.60;1.70;;;;;;;;;;6230989;23;20385;-53
2022/05/25 02:35:05;;;;;;;2.20;1.50;;;;;;;;;;6236161;23;20380;-52
2022/05/25 02:37:31;;;;;;;2.23;1.33;;;;;;;;;;6230750;23;20398;-53
2022/05/25 02:39:57;;;;;;;1.47;1.27;;;;;;;;;;6234351;23;20756;-52
2022/05/25 02:42:24;;;;;;;1.47;0.90;;;;;;;;;;6227987;23;20402;-51
2022/05/25 02:44:50;;;;;;;3.40;1.10;;;;;;;;;;6236747;22;20466;-52
2022/05/25 02:47:16;;;;;;;1.30;0.80;;;;;;;;;;6223725;23;20406;-50
2022/05/25 02:49:42;;;;;;;1.07;0.60;;;;;;;;;;6237251;23;20482;-52
2022/05/25 02:52:09;;;;;;;2.60;0.97;;;;;;;;;;6223021;23;20421;-52
2022/05/25 02:54:36;;;;;;;1.53;0.90;;;;;;;;;;6236559;23;20837;-52
2022/05/25 02:57:02;;;;;;;1.30;1.00;;;;;;;;;;6221367;23;20382;-52
2022/05/25 02:59:28;;;;;;;2.50;0.83;;;;;;;;;;6239338;23;20378;-52
2022/05/25 03:01:54;;;;;;;1.30;0.80;;;;;;;;;;6220152;23;20394;-54
2022/05/25 03:04:20;;;;;;;1.00;0.70;;;;;;;;;;6237660;23;20795;-51
2022/05/25 03:07:01;;;;;;;1.60;1.00;;;;;;;;;;6232777;23;20792;-52
2022/05/25 03:09:28;;;;;;;1.53;0.70;;;;;;;;;;6236372;22;20433;-53
2022/05/25 03:11:56;;;;;;;1.80;1.13;;;;;;;;;;6231150;22;20377;-54
2022/05/25 03:14:22;;;;;;;2.27;0.97;;;;;;;;;;6233195;23;20413;-54
2022/05/25 03:17:14;;;;;;;1.10;0.70;;;;;;;;;;6240088;23;20402;-54
2022/05/25 03:19:55;;;;;;;2.20;0.77;;;;;;;;;;6227780;23;20603;-52
2022/05/25 03:22:45;;;;;;;1.50;0.80;;;;;;;;;;6235221;23;20811;-52
2022/05/25 03:25:19;;;;;;;2.30;1.10;;;;;;;;;;6234564;22;20378;-54
2022/05/25 03:28:02;;;;;;;1.10;0.80;;;;;;;;;;6226303;23;20435;-53
2022/05/25 03:30:28;;;;;;;4.03;0.80;;;;;;;;;;6235002;22;20457;-53
2022/05/25 03:33:09;;;;;;;1.40;1.00;;;;;;;;;;6225372;23;20912;-53
2022/05/25 03:35:40;;;;;;;1.30;0.97;;;;;;;;;;6235969;22;20405;-53
2022/05/25 03:38:08;;;;;;;1.70;1.13;;;;;;;;;;6229003;23;20382;-53
2022/05/25 03:40:35;;;;;;;1.63;0.90;;;;;;;;;;6218731;23;20362;-52
2022/05/25 03:43:01;;;;;;;1.40;1.10;;;;;;;;;;6234992;23;20378;-53
2022/05/25 03:45:28;;;;;;;1.50;0.90;;;;;;;;;;6225120;23;20401;-53
2022/05/25 03:47:56;;;;;;;1.43;0.90;;;;;;;;;;6234302;23;20724;-52
2022/05/25 03:50:23;;;;;;;3.93;2.30;;;;;;;;;;6219045;23;20433;-52
2022/05/25 03:52:52;;;;;;;1.87;1.10;;;;;;;;;;6238590;23;20371;-52
2022/05/25 03:55:20;;;;;;;2.63;1.23;;;;;;;;;;6222422;22;20370;-52
2022/05/25 03:57:49;;;;;;;1.23;0.80;;;;;;;;;;6240493;23;20393;-54
2022/05/25 04:00:17;;;;;;;4.40;1.03;;;;;;;;;;6225623;22;20375;-53
2022/05/25 04:02:43;;;;;;;0.90;0.60;;;;;;;;;;6238818;22;20398;-52
2022/05/25 04:05:09;;;;;;;1.47;0.80;;;;;;;;;;6227106;23;20390;-52
2022/05/25 04:07:39;;;;;;;1.53;1.20;;;;;;;;;;6235066;23;20527;-52
2022/05/25 04:10:07;;;;;;;1.20;0.80;;;;;;;;;;6230573;23;20430;-53
2022/05/25 04:12:33;;;;;;;2.27;1.00;;;;;;;;;;6237678;23;20371;-54
2022/05/25 04:15:00;;;;;;;1.90;1.30;;;;;;;;;;6222021;23;20377;-52
2022/05/25 04:17:26;;;;;;;1.93;0.80;;;;;;;;;;6233354;23;20363;-54
2022/05/25 04:19:52;;;;;;;2.67;0.77;;;;;;;;;;6222150;22;20374;-51
2022/05/25 04:22:18;;;;;;;2.23;1.10;;;;;;;;;;6239805;23;20875;-52
2022/05/25 04:24:59;;;;;;;2.13;0.90;;;;;;;;;;6235601;23;20358;-54
2022/05/25 04:27:26;;;;;;;2.50;1.10;;;;;;;;;;6229638;23;20382;-53
2022/05/25 04:29:52;;;;;;;1.90;1.00;;;;;;;;;;6225954;23;20487;-53
2022/05/25 04:32:18;;;;;;;2.37;1.00;;;;;;;;;;6235722;23;20921;-52
2022/05/25 04:34:44;;;;;;;1.20;0.83;;;;;;;;;;6232053;22;20379;-51
2022/05/25 04:40:16;;;;;;;1.30;0.77;;;;;;;;;;6161736;23;20490;-52
2022/05/25 04:42:43;;;;;;;4.97;1.07;;;;;;;;;;6169171;23;20399;-51
2022/05/25 04:45:09;;;;;;;1.77;1.20;;;;;;;;;;6192715;23;20378;-50
2022/05/25 04:47:37;;;;;;;1.63;0.77;;;;;;;;;;6237203;23;20375;-53
2022/05/25 04:50:06;;;;;;;3.13;0.97;;;;;;;;;;6225484;23;20429;-52
2022/05/25 04:52:34;;;;;;;2.20;1.10;;;;;;;;;;6233543;22;20386;-50
2022/05/25 04:55:00;;;;;;;1.10;0.80;;;;;;;;;;6230714;23;20378;-52
2022/05/25 04:57:27;;;;;;;2.80;0.97;;;;;;;;;;6229889;23;20373;-51
2022/05/25 05:00:03;;;;;;;1.50;0.80;;;;;;;;;;6242562;22;20377;-52
2022/05/25 05:02:31;;;;;;;1.10;0.73;;;;;;;;;;6240235;22;20903;-52
2022/05/25 05:04:57;;;;;;;1.50;1.00;;;;;;;;;;6226052;23;20370;-52
2022/05/25 05:07:35;;;;;;;1.50;1.07;;;;;;;;;;6235998;23;20166;-54
2022/05/25 05:10:01;;;;;;;1.40;1.27;;;;;;;;;;6228551;23;20488;-53
2022/05/25 05:12:30;;;;;;;2.10;1.03;;;;;;;;;;6238944;23;20413;-52
2022/05/25 05:14:57;;;;;;;1.20;0.70;;;;;;;;;;6227392;23;20756;-52
2022/05/25 05:17:23;;;;;;;1.83;0.90;;;;;;;;;;6232717;23;20373;-52
2022/05/25 05:19:50;;;;;;;2.90;1.20;;;;;;;;;;6227059;23;20383;-52
2022/05/25 05:22:17;;;;;;;1.37;0.93;;;;;;;;;;6243059;23;20370;-53
2022/05/25 05:24:43;;;;;;;1.07;0.60;;;;;;;;;;6233411;23;20614;-53
2022/05/25 05:27:10;;;;;;;1.50;0.90;;;;;;;;;;6214767;23;20549;-53
2022/05/25 05:29:59;;;;;;;1.20;1.00;;;;;;;;;;6243781;23;20742;-51
2022/05/25 05:32:28;;;;;;;1.87;1.07;;;;;;;;;;6243463;22;21142;-53
2022/05/25 05:34:55;;;;;;;1.20;0.70;;;;;;;;;;6210804;23;20386;-52
2022/05/25 05:37:22;;;;;;;2.30;0.90;;;;;;;;;;6241270;23;20389;-52
2022/05/25 05:39:50;;;;;;;4.97;0.97;;;;;;;;;;6206215;23;20746;-54
2022/05/25 05:42:17;;;;;;;1.93;0.77;;;;;;;;;;6214304;23;20887;-52
2022/05/25 05:44:51;;;;;;;1.17;0.70;;;;;;;;;;6228626;23;20760;-52
2022/05/25 05:47:18;;;;;;;2.00;0.90;;;;;;;;;;6213803;23;20382;-52
2022/05/25 05:49:44;;;;;;;1.60;0.90;;;;;;;;;;6229232;23;20716;-53
2022/05/25 05:52:10;;;;;;;3.53;1.00;;;;;;;;;;6214252;23;20382;-55
2022/05/25 05:54:37;;;;;;;1.63;1.10;;;;;;;;;;6220239;23;20887;-54
2022/05/25 05:57:15;;;;;;;2.43;0.70;;;;;;;;;;6235415;23;20393;-56
2022/05/25 05:59:41;;;;;;;1.70;1.07;;;;;;;;;;6219765;23;20589;-55
2022/05/25 06:02:07;;;;;;;1.37;1.07;;;;;;;;;;6233912;23;20382;-54
2022/05/25 06:04:58;;;;;;;3.93;0.90;;;;;;;;;;6238687;23;20372;-57
2022/05/25 06:07:25;;;;;;;1.50;0.90;;;;;;;;;;6234868;23;20379;-56
2022/05/25 06:09:51;;;;;;;1.80;1.10;;;;;;;;;;6233231;23;20429;-55
2022/05/25 06:12:17;;;;;;;2.23;1.10;;;;;;;;;;6236811;23;20378;-55
2022/05/25 06:14:43;;;;;;;1.40;0.97;;;;;;;;;;6226912;23;20164;-53
2022/05/25 06:20:03;;;;;;;2.67;1.60;;;;;;;;;;6228931;23;20807;-54
2022/05/25 06:22:31;;;;;;;2.23;1.03;;;;;;;;;;6239085;23;20385;-53
2022/05/25 06:24:57;;;;;;;2.63;0.90;;;;;;;;;;6237836;22;20406;-54
2022/05/25 06:27:23;;;;;;;2.17;0.90;;;;;;;;;;6237483;23;20381;-56
2022/05/25 06:29:49;;;;;;;2.20;1.00;;;;;;;;;;6228970;23;20463;-55
2022/05/25 06:32:19;;;;;;;3.63;1.60;;;;;;;;;;6241083;23;20449;-56
2022/05/25 06:34:48;;;;;;;2.43;0.90;;;;;;;;;;6232055;23;20648;-55
2022/05/25 06:37:24;;;;;;;2.27;1.37;;;;;;;;;;6236897;23;20370;-54
2022/05/25 06:39:50;;;;;;;1.80;1.00;;;;;;;;;;6220518;23;20382;-57
2022/05/25 06:42:17;;;;;;;2.20;0.90;;;;;;;;;;6229124;23;20796;-55
2022/05/25 06:44:45;;;;;;;2.53;0.93;;;;;;;;;;6221483;23;20401;-55
2022/05/25 06:47:18;;;;;;;2.20;1.00;;;;;;;;;;6230493;23;20474;-57
2022/05/25 06:49:44;;;;;;;4.70;1.40;;;;;;;;;;6210720;23;20437;-54
2022/05/25 06:52:11;;;;;;;1.57;1.00;;;;;;;;;;6231175;23;20480;-56
2022/05/25 06:54:37;;;;;;;1.67;0.97;;;;;;;;;;6228835;23;20374;-57
2022/05/25 06:57:14;;;;;;;2.60;1.30;;;;;;;;;;6232304;22;20472;-54
2022/05/25 06:59:44;;;;;;;2.07;1.17;;;;;;;;;;6215406;22;20374;-55
2022/05/25 07:02:10;;;;;;;1.37;0.80;;;;;;;;;;6235728;23;20389;-56
2022/05/25 07:04:37;;;;;;;3.30;1.60;;;;;;;;;;6229160;23;20375;-55
2022/05/25 07:07:04;;;;;;;1.60;1.10;;;;;;;;;;6234101;22;20853;-55
2022/05/25 07:09:39;;;;;;;2.17;1.00;;;;;;;;;;6225668;23;20429;-53
2022/05/25 07:12:09;;;;;;;1.60;1.10;;;;;;;;;;6223842;22;20630;-56
2022/05/25 07:14:36;;;;;;;2.50;2.30;;;;;;;;;;6236132;22;20382;-56
2022/05/25 07:17:21;;;;;;;3.37;1.20;;;;;;;;;;6237049;23;20378;-55
2022/05/25 07:19:54;;;;;;;2.73;1.40;;;;;;;;;;6230783;22;20863;-55
2022/05/25 07:22:20;;;;;;;3.10;1.10;;;;;;;;;;6226375;23;20788;-56
2022/05/25 07:24:47;;;;;;;3.10;1.27;;;;;;;;;;6237913;23;20390;-56
2022/05/25 07:27:13;;;;;;;1.40;1.10;;;;;;;;;;6227609;23;20365;-55
2022/05/25 07:29:40;;;;;;;3.50;1.40;;;;;;;;;;6237526;23;20970;-54
2022/05/25 07:32:09;;;;;;;1.60;1.00;;;;;;;;;;6226155;23;20378;-55
2022/05/25 07:34:38;;;;;;;2.70;1.30;;;;;;;;;;6236554;22;20382;-55
2022/05/25 07:37:06;;;;;;;2.17;1.20;;;;;;;;;;6219558;23;20923;-56
2022/05/25 07:39:34;;;;;;;5.70;1.23;;;;;;;;;;6235070;23;20375;-57
2022/05/25 07:42:32;;;;;;;1.70;1.10;;;;;;;;;;6245235;23;20370;-55
2022/05/25 07:45:03;;;;;;;1.30;1.07;;;;;;;;;;6237654;22;20774;-55
2022/05/25 07:47:31;;;;;;;1.70;1.27;;;;;;;;;;6194119;23;20397;-55
2022/05/25 07:49:57;;;;;;;1.10;0.77;;;;;;;;;;6235704;22;20505;-55
2022/05/25 07:52:24;;;;;;;3.37;1.27;;;;;;;;;;6227922;23;20425;-56
2022/05/25 07:54:50;;;;;;;2.93;1.07;;;;;;;;;;6239042;23;20443;-55
2022/05/25 07:57:20;;;;;;;2.40;1.33;;;;;;;;;;6230964;23;20390;-56
2022/05/25 07:59:46;;;;;;;2.00;1.47;;;;;;;;;;6222233;23;20829;-55
2022/05/25 08:07:47;;;;;;;2.90;1.10;;;;;;;;;;6233095;23;20381;-57
2022/05/25 08:10:18;;;;;;;1.73;1.10;;;;;;;;;;6215916;23;20529;-54
2022/05/25 08:12:45;;;;;;;3.23;1.00;;;;;;;;;;6238639;23;20459;-56
2022/05/25 08:15:11;;;;;;;2.07;1.50;;;;;;;;;;6220075;22;20477;-55
2022/05/25 08:17:37;;;;;;;1.70;0.90;;;;;;;;;;6235364;23;20370;-54
2022/05/25 08:20:04;;;;;;;1.93;1.00;;;;;;;;;;6231621;23;20388;-59
2022/05/25 08:22:30;;;;;;;2.77;1.03;;;;;;;;;;6234082;23;20309;-53
2022/05/25 08:24:57;;;;;;;3.03;0.90;;;;;;;;;;6216622;23;20564;-55
2022/05/25 08:27:23;;;;;;;1.40;0.93;;;;;;;;;;6229800;22;20140;-54
2022/05/25 08:29:51;;;;;;;1.73;0.93;;;;;;;;;;6218771;23;20916;-55
2022/05/25 08:32:17;;;;;;;1.60;0.90;;;;;;;;;;6233247;23;20915;-56
2022/05/25 08:35:11;;;;;;;1.30;0.90;;;;;;;;;;6233839;23;20387;-56
2022/05/25 08:37:41;;;;;;;5.10;1.10;;;;;;;;;;6232090;22;20416;-56
2022/05/25 08:40:25;;;;;;;2.40;0.93;;;;;;;;;;6217890;22;20536;-56
2022/05/25 08:42:57;;;;;;;2.20;1.00;;;;;;;;;;6233741;22;20386;-56
2022/05/25 08:45:24;;;;;;;1.83;1.20;;;;;;;;;;6218177;23;20936;-56
2022/05/25 08:47:51;;;;;;;1.53;0.80;;;;;;;;;;6231697;23;20462;-56
2022/05/25 08:50:20;;;;;;;1.97;1.00;;;;;;;;;;6195397;23;20563;-57
2022/05/25 08:52:47;;;;;;;2.13;1.20;;;;;;;;;;6235750;23;20409;-56
2022/05/25 08:55:13;;;;;;;5.10;1.40;;;;;;;;;;6222335;23;20763;-56
2022/05/25 08:57:42;;;;;;;2.87;1.20;;;;;;;;;;6232584;23;20369;-57
2022/05/25 09:00:10;;;;;;;9.33;2.10;;;;;;;;;;6219917;22;21018;-55
2022/05/25 09:02:46;;;;;;;2.63;0.90;;;;;;;;;;6234311;23;20404;-56
2022/05/25 09:05:18;;;;;;;3.23;1.13;;;;;;;;;;6218728;22;20535;-56
2022/05/25 09:07:49;;;;;;;2.37;1.73;;;;;;;;;;6233533;23;20410;-57
2022/05/25 09:10:16;;;;;;;1.30;0.90;;;;;;;;;;6222639;23;20963;-56
2022/05/25 09:13:05;;;;;;;1.23;0.70;;;;;;;;;;6233072;23;20413;-56
2022/05/25 09:16:27;;;;;;;2.00;1.07;;;;;;;;;;6210143;23;20690;-58
2022/05/25 09:18:33;;;;;;;3.37;1.00;;;;;;;;;;6221915;23;20378;-56
2022/05/25 09:20:59;;;;;;;1.73;0.93;;;;;;;;;;6187286;23;20510;-56
2022/05/25 09:23:26;;;;;;;2.93;0.73;;;;;;;;;;6232746;23;20374;-56
2022/05/25 09:25:52;;;;;;;1.70;0.93;;;;;;;;;;6220357;23;21159;-56
2022/05/25 09:28:20;;;;;;;1.40;1.03;;;;;;;;;;6233675;22;20371;-55
2022/05/25 09:30:47;;;;;;;1.30;0.70;;;;;;;;;;6221824;23;21136;-55
2022/05/25 09:33:18;;;;;;;3.70;0.97;;;;;;;;;;6231925;23;20374;-56
2022/05/25 09:36:11;;;;;;;1.70;1.00;;;;;;;;;;6233262;23;20465;-57
2022/05/25 09:38:43;;;;;;;5.10;0.90;;;;;;;;;;6232228;23;20386;-55
2022/05/25 09:41:11;;;;;;;1.60;1.03;;;;;;;;;;6225915;23;21006;-57
2022/05/25 09:43:40;;;;;;;4.07;0.90;;;;;;;;;;6233014;23;20775;-60
2022/05/25 09:46:08;;;;;;;1.60;1.00;;;;;;;;;;6224138;23;20789;-56
2022/05/25 09:48:37;;;;;;;2.27;1.00;;;;;;;;;;6207388;23;20424;-55
2022/05/25 09:51:03;;;;;;;2.27;0.93;;;;;;;;;;6217981;23;20430;-56
2022/05/25 09:53:40;;;;;;;2.17;0.90;;;;;;;;;;6230674;23;20817;-55
2022/05/25 09:56:33;;;;;;;2.37;1.03;;;;;;;;;;6226153;23;20178;-55
2022/05/25 09:59:02;;;;;;;2.70;1.00;;;;;;;;;;6230303;22;20382;-56
2022/05/25 10:02:13;;;;;;;2.10;0.90;;;;;;;;;;6223560;23;20433;-55
2022/05/25 10:04:56;;;;;;;2.20;1.10;;;;;;;;;;6237352;23;20629;-56
2022/05/25 10:07:26;;;;;;;3.07;1.00;;;;;;;;;;6221094;23;20868;-56
2022/05/25 10:09:54;;;;;;;3.10;1.07;;;;;;;;;;6233390;23;20430;-54
2022/05/25 10:12:31;;;;;;;1.90;0.80;;;;;;;;;;6223346;23;20458;-56
2022/05/25 10:14:58;;;;;;;2.20;1.13;;;;;;;;;;6234588;23;20378;-55
2022/05/25 10:17:31;;;;;;;1.67;0.80;;;;;;;;;;6223388;23;20359;-54
2022/05/25 10:19:57;;;;;;;1.57;1.00;;;;;;;;;;6237755;23;20386;-56
2022/05/25 10:22:23;;;;;;;2.63;1.30;;;;;;;;;;6241796;23;20919;-54
2022/05/25 10:24:56;;;;;;;1.50;0.90;;;;;;;;;;6241768;23;20464;-55
2022/05/25 10:27:23;;;;;;;3.00;1.10;;;;;;;;;;6232059;23;20170;-56
2022/05/25 10:38:58;;;;;;;4.13;0.90;;;;;;;;;;6235319;23;20381;-57
2022/05/25 10:41:43;;;;;;;2.70;1.03;;;;;;;;;;6241876;23;20366;-56
2022/05/25 10:44:17;;;;;;;2.10;1.33;;;;;;;;;;6235857;23;20375;-56
2022/05/25 10:46:46;;;;;;;1.37;0.80;;;;;;;;;;6242334;23;20473;-56
2022/05/25 10:49:29;;;;;;;1.57;1.00;;;;;;;;;;6200499;23;20394;-56
2022/05/25 10:52:03;;;;;;;1.67;0.80;;;;;;;;;;6244714;23;20768;-61
2022/05/25 10:57:33;;;;;;;1.57;0.90;;;;;;;;;;6161404;23;20396;-56
2022/05/25 11:00:05;;;;;;;1.80;0.97;;;;;;;;;;6222445;22;20400;-56
2022/05/25 11:02:45;;;;;;;1.47;0.97;;;;;;;;;;6240471;23;20402;-56
2022/05/25 11:05:24;;;;;;;2.30;0.80;;;;;;;;;;6234502;23;20370;-58
2022/05/25 11:07:50;;;;;;;2.43;1.00;;;;;;;;;;6242462;22;20374;-55
2022/05/25 11:10:17;;;;;;;2.93;0.90;;;;;;;;;;6230348;23;20965;-58
2022/05/25 11:12:52;;;;;;;1.70;1.00;;;;;;;;;;6224327;23;20605;-56
2022/05/25 11:15:29;;;;;;;2.40;1.13;;;;;;;;;;6221958;23;20891;-57
2022/05/25 11:17:59;;;;;;;1.90;1.20;;;;;;;;;;6240164;23;20861;-56
2022/05/25 11:20:43;;;;;;;4.90;1.00;;;;;;;;;;6233131;23;20406;-62
2022/05/25 11:23:15;;;;;;;2.90;0.97;;;;;;;;;;6240151;23;20809;-56
2022/05/25 11:25:47;;;;;;;3.97;0.87;;;;;;;;;;6226401;23;20394;-55
2022/05/25 11:28:27;;;;;;;1.50;0.90;;;;;;;;;;6218168;23;20410;-55
2022/05/25 11:30:56;;;;;;;3.67;1.00;;;;;;;;;;6236475;23;20433;-55
2022/05/25 11:33:23;;;;;;;1.50;0.90;;;;;;;;;;6231147;23;20363;-56
2022/05/25 11:35:55;;;;;;;1.50;0.97;;;;;;;;;;6239610;23;20366;-56
2022/05/25 11:38:40;;;;;;;1.27;0.70;;;;;;;;;;6221884;22;20765;-56
2022/05/25 11:41:05;;;;;;;1.80;1.00;;;;;;;;;;6241444;23;20690;-56
2022/05/25 11:43:31;;;;;;;1.80;0.90;;;;;;;;;;6224565;23;20466;-57
2022/05/25 11:46:07;;;;;;;3.43;0.90;;;;;;;;;;6241078;23;20174;-56
2022/05/25 11:48:39;;;;;;;2.00;0.90;;;;;;;;;;6232891;23;20155;-57
2022/05/25 11:51:35;;;;;;;2.70;1.20;;;;;;;;;;6223455;22;20449;-57
2022/05/25 11:54:21;;;;;;;3.00;0.93;;;;;;;;;;6233965;23;20409;-56
2022/05/25 11:57:06;;;;;;;2.13;0.83;;;;;;;;;;6226147;23;20405;-55
2022/05/25 11:59:53;;;;;;;1.70;1.07;;;;;;;;;;6240916;22;20382;-56
2022/05/25 12:02:38;;;;;;;2.17;0.90;;;;;;;;;;6221791;23;20378;-57
2022/05/25 12:05:22;;;;;;;1.80;0.93;;;;;;;;;;6236657;23;20373;-55
2022/05/25 12:07:52;;;;;;;1.83;0.80;;;;;;;;;;6224457;23;20461;-56
2022/05/25 12:10:32;;;;;;;1.90;1.10;;;;;;;;;;6240382;23;20434;-57
2022/05/25 12:13:15;;;;;;;3.63;1.00;;;;;;;;;;6236509;22;20440;-55
2022/05/25 12:16:03;;;;;;;1.87;0.87;;;;;;;;;;6209185;23;20374;-56
2022/05/25 12:18:34;;;;;;;4.53;1.10;;;;;;;;;;6237503;23;20374;-56
2022/05/25 12:21:22;;;;;;;4.80;1.33;;;;;;;;;;6234028;23;20929;-57
2022/05/25 12:23:52;;;;;;;2.57;0.80;;;;;;;;;;6239919;23;20359;-57
2022/05/25 12:26:22;;;;;;;1.40;0.60;;;;;;;;;;6207193;23;20697;-57
2022/05/25 12:28:48;;;;;;;2.67;0.90;;;;;;;;;;6240810;23;20424;-56
2022/05/25 12:31:49;;;;;;;1.93;1.00;;;;;;;;;;6246154;23;20532;-61
2022/05/25 12:34:17;;;;;;;1.97;0.80;;;;;;;;;;6227105;22;20377;-57
2022/05/25 12:36:43;;;;;;;2.23;1.27;;;;;;;;;;6238896;23;20495;-55
2022/05/25 12:39:09;;;;;;;2.63;0.70;;;;;;;;;;6214289;23;20374;-58
2022/05/25 12:41:36;;;;;;;2.00;0.83;;;;;;;;;;6236790;23;20730;-56
2022/05/25 12:49:58;;;;;;;2.13;0.70;;;;;;;;;;6231615;23;20832;-55
2022/05/25 12:52:26;;;;;;;1.63;0.80;;;;;;;;;;6243370;22;20386;-55
2022/05/25 12:54:54;;;;;;;2.13;1.30;;;;;;;;;;6237394;23;20869;-55
2022/05/25 12:57:24;;;;;;;2.23;1.10;;;;;;;;;;6212924;23;20391;-55
2022/05/25 12:59:50;;;;;;;2.37;0.90;;;;;;;;;;6228810;23;20513;-55
2022/05/25 13:02:19;;;;;;;1.90;0.90;;;;;;;;;;6239847;23;20504;-56
2022/05/25 13:04:51;;;;;;;4.13;0.90;;;;;;;;;;6228613;23;20374;-56
2022/05/25 13:07:37;;;;;;;1.50;0.80;;;;;;;;;;6239001;22;20572;-57
2022/05/25 13:10:09;;;;;;;2.77;1.27;;;;;;;;;;6227228;23;20574;-57
2022/05/25 13:12:42;;;;;;;2.13;0.80;;;;;;;;;;6241315;23;20428;-55
2022/05/25 13:15:14;;;;;;;1.97;1.43;;;;;;;;;;6233717;23;20390;-56
2022/05/25 13:17:41;;;;;;;1.47;0.80;;;;;;;;;;6236874;23;20382;-56
2022/05/25 13:20:15;;;;;;;3.23;1.40;;;;;;;;;;6224662;23;20714;-57
2022/05/25 13:22:45;;;;;;;2.03;1.00;;;;;;;;;;6238671;23;20378;-57
2022/05/25 13:25:17;;;;;;;1.63;0.80;;;;;;;;;;6232650;23;20371;-56
2022/05/25 13:27:53;;;;;;;1.93;0.90;;;;;;;;;;6241576;22;20387;-56
2022/05/25 13:30:24;;;;;;;3.17;1.00;;;;;;;;;;6232523;22;20438;-57
2022/05/25 13:33:00;;;;;;;2.30;0.90;;;;;;;;;;6213907;23;20394;-56
2022/05/25 13:35:52;;;;;;;2.30;0.90;;;;;;;;;;6238573;23;20497;-57
2022/05/25 13:38:30;;;;;;;9.73;1.30;;;;;;;;;;6227806;23;20378;-56
2022/05/25 13:41:03;;;;;;;3.03;0.80;;;;;;;;;;6226396;22;20733;-56
2022/05/25 13:43:40;;;;;;;1.97;1.13;;;;;;;;;;6238456;23;20440;-57
2022/05/25 13:46:09;;;;;;;1.70;1.20;;;;;;;;;;6223406;22;21316;-57
2022/05/25 13:48:36;;;;;;;4.50;1.23;;;;;;;;;;6233688;23;20398;-57
2022/05/25 13:51:20;;;;;;;1.60;0.83;;;;;;;;;;6236840;22;20960;-57
2022/05/25 13:53:49;;;;;;;3.60;1.70;;;;;;;;;;6261867;22;20428;-57
2022/05/25 13:56:20;;;;;;;2.07;0.63;;;;;;;;;;6234973;23;20727;-58
2022/05/25 13:58:47;;;;;;;3.20;2.50;;;;;;;;;;6240233;22;20385;-56
2022/05/25 14:01:14;;;;;;;1.50;0.73;;;;;;;;;;6234916;23;20370;-57
2022/05/25 14:03:41;;;;;;;2.47;0.80;;;;;;;;;;6241021;23;20448;-58
2022/05/25 14:06:09;;;;;;;2.43;0.87;;;;;;;;;;6223378;23;20378;-56
2022/05/25 14:11:41;;;;;;;2.10;0.90;;;;;;;;;;6218902;23;20437;-57
2022/05/25 14:14:35;;;;;;;2.77;1.13;;;;;;;;;;6241470;23;20371;-57
2022/05/25 14:17:26;;;;;;;3.90;1.10;;;;;;;;;;6239745;22;20385;-58
2022/05/25 14:19:53;;;;;;;4.00;1.10;;;;;;;;;;6227653;22;20799;-56
2022/05/25 14:22:20;;;;;;;3.30;2.17;;;;;;;;;;6240512;23;20358;-57
2022/05/25 14:25:00;;;;;;;3.00;0.83;;;;;;;;;;6239600;23;20631;-58
2022/05/25 14:27:30;;;;;;;2.20;0.70;;;;;;;;;;6242980;22;20370;-56
2022/05/25 14:29:58;;;;;;;3.97;1.00;;;;;;;;;;6226729;23;20456;-57
2022/05/25 14:32:31;;;;;;;2.87;1.00;;;;;;;;;;6240563;23;20382;-59
2022/05/25 14:34:58;;;;;;;5.73;1.30;;;;;;;;;;6236889;23;20368;-59
2022/05/25 14:37:27;;;;;;;2.57;1.00;;;;;;;;;;6238707;23;20575;-59
2022/05/25 14:40:01;;;;;;;1.63;0.93;;;;;;;;;;6229493;23;20734;-60
2022/05/25 14:42:28;;;;;;;2.43;0.90;;;;;;;;;;6240907;23;20377;-60
2022/05/25 14:44:55;;;;;;;2.80;0.80;;;;;;;;;;6239004;22;20378;-59
2022/05/25 14:47:25;;;;;;;3.70;1.57;;;;;;;;;;6243427;22;20374;-58
2022/05/25 14:50:04;;;;;;;1.73;0.93;;;;;;;;;;6225629;23;20526;-58
2022/05/25 14:52:30;;;;;;;2.90;1.40;;;;;;;;;;6243439;23;20362;-58
2022/05/25 14:55:32;;;;;;;1.73;1.00;;;;;;;;;;6239460;23;20709;-57
2022/05/25 14:58:20;;;;;;;2.07;1.20;;;;;;;;;;6145655;23;20376;-56
2022/05/25 15:00:48;;;;;;;2.33;1.20;;;;;;;;;;6225328;23;20408;-56
2022/05/25 15:03:27;;;;;;;3.37;0.90;;;;;;;;;;6239069;23;20378;-56
2022/05/25 15:05:57;;;;;;;1.67;1.00;;;;;;;;;;6228905;22;20465;-56
2022/05/25 15:08:27;;;;;;;1.90;1.10;;;;;;;;;;6216219;23;20822;-56
2022/05/25 15:10:53;;;;;;;3.37;1.30;;;;;;;;;;6226802;23;20506;-57
2022/05/25 15:18:28;;;;;;;2.83;1.77;;;;;;;;;;6240599;23;20809;-56
2022/05/25 15:19:30;;;;;;;3.63;1.60;;;;;;;;;;6236362;23;20429;-56
2022/05/25 15:22:02;;;;;;;3.83;1.00;;;;;;;;;;6241391;22;20820;-56
2022/05/25 15:24:28;;;;;;;3.07;0.77;;;;;;;;;;6238883;23;20386;-56
2022/05/25 15:26:57;;;;;;;2.40;1.30;;;;;;;;;;6242814;23;21040;-56
2022/05/25 15:30:01;;;;;;;2.30;1.50;;;;;;;;;;6240944;23;20386;-57
2022/05/25 15:32:27;;;;;;;6.00;1.20;;;;;;;;;;6242301;22;20390;-56
2022/05/25 15:34:53;;;;;;;3.80;1.27;;;;;;;;;;6236930;23;20443;-58
2022/05/25 15:37:19;;;;;;;1.70;1.10;;;;;;;;;;6241255;23;20382;-54
2022/05/25 15:39:47;;;;;;;1.80;1.20;;;;;;;;;;6231241;22;20691;-54
2022/05/25 15:42:14;;;;;;;1.97;1.13;;;;;;;;;;6241872;23;20377;-57
2022/05/25 15:44:40;;;;;;;1.80;1.07;;;;;;;;;;6232366;23;20479;-52
2022/05/25 15:50:09;;;;;;;2.07;1.10;;;;;;;;;;6223989;23;20511;-54